Portada
METAR-TAF:

METAR-TAF

Aeropuertos :

Aeropuerto Internacional de Nanning-Wuxu

Nanning, China

latitud: 22-49N, longitud: 108-21E, altitud: 73 m

Observación

El informe se hizo hace 1 hora y 3 minutos, a las 04:00 UTC
Viento 10 kt del sur-sureste, variando entre sureste y sur-suroeste
Temperatura 24°C
Humedad 61%
Presión 1019 hPa
Visibilidad 10 km o más
Escasas nubes a una altura de 2000 ft

METAR: ZGNN 150400Z 16005MPS 130V200 9999 FEW020 24/16 Q1019 NOSIG

Hora: 13:03 (05:03 UTC)

Pronóstico

El informe se hizo hace 9 horas y 53 minutos, a las 19:10 UTC
Pronóstico válido del 15 a las 00 UTC al 15 a las 24 UTC
Viento 6 kt del sur-sureste
Visibilidad: 5000 m
Nubes dispersas a una altura de 4000 ft
neblina

TAF: ZGNN 141910Z 1500/1524 16003MPS 5000 BR SCT040 TX25/1507Z TN17/1522Z

Observaciones y pronósticos meteorológicos de más de 4000 aeropuertos (mensajes METAR y TAF).

Los puntos amarillos y rojos representan las estaciones disponibles.

Ponga el ratón en el punto deseado para ver el nombre de la estación.

Haga clic para ver las observaciones y los pronósticos meteorológicos.

Para cambiar el mapa : haga clic en los botones verdes con una cruz de color negro para hacer un zoom, en el botón verde con un guión para alejar o en las flechas verdes para mapas adyacentes.


METAR-TAF: